»·PEaware :: N72CS KKNB-KLGB

N72CS :: KKNB-KLGB

FLIGHT INFORMATION

Flight Status: Arrived
Operator: Privately registered:
United States
More flights under this callsign
Pilot: Craig S. (32303)
Aircraft: CIRRUS VISIONJET
(SF50)
More flights by this aircraft type
Origin: KKNB Kanab Mun
United States
Destination: KLGB Long Beach
United States
More flights between these airports :: More routes between these airports
Route: JITKA V8 MMM V21 HEC KAYOH7
File this flight plan on PilotEdge
Remarks:
Altitude:
(Current/Filed)
16,500ft
Speed:
(Current/Filed)
220kts
Departed: 31-Dec-20 05:25 PM
Arrived: 31-Dec-20 06:49 PM
Distance/Time
Traveled:
335nm/1:23
Distance/Time
To Go:
Arrived

Flight Plot

Page will automatically refresh every two minutes.

Flight plan parsing failed; only flown route is shown


Map Options




Map Legend


Flown Route
Filed Route
Departure Airport
Arrival Airport
Navaid (VOR, NDB)
Fix

Horizontal Profiles

Position Reports

Time Latitude Longitude Heading Altitude Ground
Speed
31-Dec-20 17:11 37.010643 -112.530214 261 4837ft 0kts
31-Dec-20 17:12 37.010972 -112.530407 352 4837ft 0kts
31-Dec-20 17:15 37.010657 -112.530031 256 4838ft 0kts
31-Dec-20 17:16 37.010657 -112.530031 256 4838ft 0kts
31-Dec-20 17:17 37.010814 -112.530395 349 4837ft 6kts
31-Dec-20 17:18 37.010925 -112.530405 0 4837ft 0kts
31-Dec-20 17:23 37.017601 -112.528067 200 4855ft 34kts
31-Dec-20 17:24 36.987684 -112.553291 253 6299ft 156kts
31-Dec-20 17:25 37.000354 -112.600285 297 8820ft 143kts
31-Dec-20 17:26 37.014156 -112.646638 290 10989ft 145kts
31-Dec-20 17:27 37.027371 -112.694379 291 13013ft 146kts
31-Dec-20 17:28 37.030982 -112.745020 274 14917ft 148kts
31-Dec-20 17:29 37.034664 -112.796622 278 16372ft 169kts
31-Dec-20 17:30 37.041465 -112.874945 278 16374ft 253kts
31-Dec-20 17:31 37.049745 -112.970877 280 16372ft 270kts
31-Dec-20 17:32 37.058196 -113.069519 281 16377ft 277kts
31-Dec-20 17:33 37.066536 -113.168050 281 16388ft 280kts
31-Dec-20 17:34 37.074986 -113.268869 281 16400ft 281kts
31-Dec-20 17:35 37.083314 -113.369136 282 16403ft 282kts
31-Dec-20 17:36 37.091617 -113.470139 282 16403ft 282kts
31-Dec-20 17:37 37.097709 -113.570524 264 16401ft 292kts
31-Dec-20 17:38 37.060615 -113.664784 242 16402ft 299kts
31-Dec-20 17:39 37.017785 -113.755730 241 16401ft 296kts
31-Dec-20 17:40 36.975552 -113.844948 240 16400ft 292kts
31-Dec-20 17:41 36.934340 -113.931769 240 16400ft 288kts
31-Dec-20 17:42 36.893353 -114.017903 240 16398ft 287kts
31-Dec-20 17:43 36.852550 -114.103431 240 16398ft 286kts
31-Dec-20 17:45 36.811702 -114.188828 240 16398ft 285kts
31-Dec-20 17:46 36.768641 -114.273599 222 16394ft 287kts
31-Dec-20 17:47 36.695675 -114.333696 212 16385ft 287kts
31-Dec-20 17:48 36.624528 -114.388118 211 16377ft 288kts
31-Dec-20 17:49 36.555962 -114.440406 211 16366ft 288kts
31-Dec-20 17:50 36.487148 -114.492772 212 16363ft 288kts
31-Dec-20 17:51 36.418803 -114.544674 211 16363ft 288kts
31-Dec-20 17:52 36.350019 -114.596798 211 16363ft 288kts
31-Dec-20 17:53 36.280502 -114.649366 211 16363ft 288kts
31-Dec-20 17:54 36.210439 -114.702234 211 16363ft 288kts
31-Dec-20 17:55 36.140606 -114.754818 211 16363ft 288kts
31-Dec-20 17:56 36.070926 -114.807177 211 16363ft 288kts
31-Dec-20 17:57 36.000916 -114.860224 218 16354ft 288kts
31-Dec-20 17:58 35.943376 -114.935070 228 16364ft 287kts
31-Dec-20 17:58 35.896839 -114.998419 229 16364ft 288kts
31-Dec-20 18:00 35.831307 -115.087479 229 16365ft 294kts
31-Dec-20 18:01 35.773686 -115.165598 230 16368ft 301kts
31-Dec-20 18:02 35.714727 -115.245348 230 16371ft 307kts
31-Dec-20 18:02 35.665072 -115.312357 230 16371ft 310kts
31-Dec-20 18:03 35.605429 -115.392670 230 16372ft 312kts
31-Dec-20 18:04 35.545795 -115.472780 230 16373ft 312kts
31-Dec-20 18:05 35.486883 -115.551734 230 16374ft 313kts
31-Dec-20 18:06 35.426814 -115.632048 230 16375ft 313kts
31-Dec-20 18:07 35.366354 -115.712693 230 16369ft 313kts
31-Dec-20 18:08 35.303200 -115.796724 230 16360ft 313kts
31-Dec-20 18:09 35.236392 -115.885392 229 16351ft 313kts
31-Dec-20 18:10 35.167148 -115.977052 230 16347ft 313kts
31-Dec-20 18:11 35.097664 -116.068780 230 16348ft 313kts
31-Dec-20 18:12 35.030161 -116.157657 230 16349ft 314kts
31-Dec-20 18:13 34.968027 -116.239245 231 16362ft 314kts
31-Dec-20 18:14 34.906314 -116.320099 232 16367ft 315kts
31-Dec-20 18:15 34.845944 -116.399021 233 16351ft 314kts
31-Dec-20 18:16 34.783668 -116.479258 231 16350ft 314kts
31-Dec-20 18:17 34.716888 -116.561566 231 16351ft 314kts
31-Dec-20 18:18 34.650951 -116.642587 231 16357ft 314kts
31-Dec-20 18:19 34.585815 -116.720946 228 15752ft 327kts
31-Dec-20 18:20 34.520249 -116.793989 228 16075ft 308kts
31-Dec-20 18:21 34.458024 -116.870260 231 14352ft 318kts
31-Dec-20 18:22 34.398068 -116.947331 230 12883ft 306kts
31-Dec-20 18:23 34.341167 -117.015301 227 12820ft 276kts
31-Dec-20 18:24 34.289237 -117.079891 231 12901ft 260kts
31-Dec-20 18:25 34.227532 -117.126963 182 12351ft 280kts
31-Dec-20 18:26 34.148734 -117.133504 185 11399ft 293kts
31-Dec-20 18:27 34.069499 -117.145427 185 11028ft 276kts
31-Dec-20 18:28 33.996261 -117.157665 185 11223ft 256kts
31-Dec-20 18:29 33.932906 -117.193201 228 11192ft 257kts
31-Dec-20 18:30 33.890676 -117.266249 242 10347ft 277kts
31-Dec-20 18:31 33.851930 -117.346618 244 9333ft 286kts
31-Dec-20 18:32 33.813477 -117.429629 244 8374ft 280kts
31-Dec-20 18:33 33.776086 -117.508130 260 8055ft 244kts
31-Dec-20 18:34 33.774120 -117.579800 278 7866ft 198kts
31-Dec-20 18:35 33.774970 -117.642403 280 7653ft 187kts
31-Dec-20 18:36 33.780215 -117.710076 274 6752ft 215kts
31-Dec-20 18:37 33.779300 -117.781705 274 5715ft 210kts
31-Dec-20 18:38 33.780608 -117.849026 268 4109ft 198kts
31-Dec-20 18:39 33.747552 -117.886165 208 4032ft 140kts
31-Dec-20 18:40 33.721497 -117.913784 241 3215ft 123kts
31-Dec-20 18:41 33.704099 -117.947843 246 2892ft 111kts
31-Dec-20 18:42 33.709238 -117.981756 287 2934ft 112kts
31-Dec-20 18:43 33.719781 -118.017500 283 3063ft 120kts
31-Dec-20 18:44 33.735925 -118.052285 313 2218ft 114kts
31-Dec-20 18:45 33.757950 -118.079227 314 1419ft 114kts
31-Dec-20 18:47 33.783687 -118.109874 312 933ft 103kts
31-Dec-20 18:47 33.800818 -118.130837 312 388ft 102kts
31-Dec-20 18:48 33.816165 -118.149470 314 39ft 8kts
31-Dec-20 18:49 33.818478 -118.152386 288 42ft 14kts
31-Dec-20 18:50 33.818563 -118.153713 271 44ft 0kts
31-Dec-20 18:51 33.818563 -118.153713 271 44ft 0kts
31-Dec-20 18:52 33.818563 -118.153713 271 44ft 0kts

Navigation Log

Ident Type
Flight plan parsing failed, navigation log unavailable